createdAt,value
2022-10-06T00:02:05.889Z,100.00
2022-10-06T00:04:34.496Z,100.00
2022-10-06T00:07:02.880Z,100.00
2022-10-06T00:09:32.833Z,100.00
2022-10-06T00:12:01.589Z,100.00
2022-10-06T00:14:30.005Z,100.00
2022-10-06T00:16:58.377Z,100.00
2022-10-06T00:19:26.805Z,100.00
2022-10-06T00:21:55.720Z,100.00
2022-10-06T00:24:23.832Z,100.00
2022-10-06T00:26:53.844Z,100.00
2022-10-06T00:29:22.270Z,100.00
2022-10-06T00:31:50.421Z,100.00
2022-10-06T00:34:18.767Z,100.00
2022-10-06T00:36:47.231Z,100.00
2022-10-06T00:39:15.805Z,100.00
2022-10-06T00:41:44.237Z,100.00
2022-10-06T00:44:14.372Z,100.00
2022-10-06T00:46:46.627Z,100.00
2022-10-06T00:49:21.696Z,100.00
2022-10-06T00:51:54.661Z,100.00
2022-10-06T00:54:23.942Z,100.00
2022-10-06T00:56:52.289Z,100.00
2022-10-06T00:59:22.837Z,100.00
2022-10-06T01:01:57.169Z,100.00
2022-10-06T01:04:27.234Z,100.00
2022-10-06T01:06:59.302Z,100.00
2022-10-06T01:09:31.932Z,100.00
2022-10-06T01:12:04.421Z,100.00
2022-10-06T01:14:36.280Z,100.00
2022-10-06T01:17:11.477Z,100.00
2022-10-06T01:19:52.650Z,100.00
2022-10-06T01:22:30.663Z,100.00
2022-10-06T01:24:59.927Z,100.00
2022-10-06T01:27:31.311Z,100.00
2022-10-06T01:30:01.728Z,100.00
2022-10-06T01:32:35.076Z,100.00
2022-10-06T01:35:03.842Z,100.00
2022-10-06T01:37:36.213Z,100.00
2022-10-06T01:40:05.790Z,100.00
2022-10-06T01:42:35.992Z,100.00
2022-10-06T01:45:05.432Z,100.00
2022-10-06T01:47:34.513Z,100.00
2022-10-06T01:50:03.153Z,100.00
2022-10-06T01:52:31.563Z,100.00
2022-10-06T01:55:01.377Z,100.00
2022-10-06T01:57:29.928Z,100.00
2022-10-06T01:59:58.301Z,100.00
2022-10-06T02:02:26.807Z,100.00
2022-10-06T02:04:55.412Z,100.00
2022-10-06T02:07:23.809Z,100.00
2022-10-06T02:09:52.111Z,100.00
2022-10-06T02:12:22.623Z,100.00
2022-10-06T02:14:51.058Z,100.00
2022-10-06T02:17:19.395Z,100.00
2022-10-06T02:19:47.580Z,100.00
2022-10-06T02:22:15.699Z,100.00
2022-10-06T02:24:44.164Z,100.00
2022-10-06T02:27:15.109Z,100.00
2022-10-06T02:29:45.289Z,100.00
2022-10-06T02:32:13.805Z,100.00
2022-10-06T02:34:42.860Z,100.00
2022-10-06T02:37:11.244Z,100.00
2022-10-06T02:39:39.632Z,100.00
2022-10-06T02:42:08.255Z,100.00
2022-10-06T02:44:36.653Z,100.00
2022-10-06T02:47:07.527Z,100.00
2022-10-06T02:49:37.133Z,100.00
2022-10-06T02:52:05.552Z,100.00
2022-10-06T02:54:35.712Z,100.00
2022-10-06T02:57:04.247Z,100.00
2022-10-06T02:59:34.197Z,100.00
2022-10-06T03:02:02.921Z,100.00
2022-10-06T03:04:32.820Z,100.00
2022-10-06T03:07:01.270Z,100.00
2022-10-06T03:09:33.933Z,100.00
2022-10-06T03:12:02.359Z,100.00
2022-10-06T03:14:30.734Z,100.00
2022-10-06T03:16:59.255Z,100.00
2022-10-06T03:19:27.706Z,100.00
2022-10-06T03:21:59.498Z,100.00
2022-10-06T03:24:28.027Z,100.00
2022-10-06T03:26:56.613Z,100.00
2022-10-06T03:29:24.761Z,100.00
2022-10-06T03:31:53.260Z,100.00
2022-10-06T03:34:21.804Z,100.00
2022-10-06T03:36:50.107Z,100.00
2022-10-06T03:39:20.210Z,100.00
2022-10-06T03:41:48.827Z,100.00
2022-10-06T03:44:17.380Z,100.00
2022-10-06T03:46:45.829Z,100.00
2022-10-06T03:49:14.589Z,100.00
2022-10-06T03:51:44.353Z,100.00
2022-10-06T03:54:13.102Z,100.00
2022-10-06T03:56:43.261Z,100.00
2022-10-06T03:59:13.995Z,100.00
2022-10-06T04:01:44.483Z,100.00
2022-10-06T04:04:14.622Z,100.00
2022-10-06T04:06:44.780Z,100.00
2022-10-06T04:09:16.250Z,100.00
2022-10-06T04:11:49.701Z,100.00
2022-10-06T04:14:19.550Z,100.00
2022-10-06T04:16:49.563Z,100.00
2022-10-06T04:19:19.488Z,100.00
2022-10-06T04:21:49.154Z,100.00
2022-10-06T04:24:18.668Z,100.00
2022-10-06T04:26:50.225Z,100.00
2022-10-06T04:29:18.701Z,100.00
2022-10-06T04:31:47.237Z,100.00
2022-10-06T04:34:15.643Z,100.00
2022-10-06T04:36:47.325Z,100.00
2022-10-06T04:39:15.765Z,100.00
2022-10-06T04:41:47.584Z,100.00
2022-10-06T04:44:17.323Z,100.00
2022-10-06T04:46:45.930Z,100.00
2022-10-06T04:49:20.106Z,100.00
2022-10-06T04:51:50.128Z,100.00
2022-10-06T04:54:19.429Z,100.00
2022-10-06T04:56:47.918Z,100.00
2022-10-06T04:59:17.850Z,100.00
2022-10-06T05:01:47.767Z,100.00
2022-10-06T05:04:16.211Z,100.00
2022-10-06T05:06:44.861Z,100.00
2022-10-06T05:09:16.013Z,100.00
2022-10-06T05:11:45.305Z,100.00
2022-10-06T05:14:14.037Z,100.00
2022-10-06T05:16:43.706Z,100.00
2022-10-06T05:19:11.947Z,100.00
2022-10-06T05:21:40.213Z,100.00
2022-10-06T05:24:09.417Z,100.00
2022-10-06T05:26:38.196Z,100.00
2022-10-06T05:29:06.511Z,100.00
2022-10-06T05:31:39.081Z,100.00
2022-10-06T05:34:09.468Z,100.00
2022-10-06T05:36:38.565Z,100.00
2022-10-06T05:39:06.890Z,100.00
2022-10-06T05:41:37.841Z,100.00
2022-10-06T05:44:07.275Z,100.00
2022-10-06T05:46:36.536Z,100.00
2022-10-06T05:49:07.343Z,100.00
2022-10-06T05:51:39.044Z,100.00
2022-10-06T05:54:07.896Z,100.00
2022-10-06T05:56:37.990Z,100.00
2022-10-06T05:59:07.256Z,100.00
2022-10-06T06:01:37.219Z,100.00
2022-10-06T06:04:07.454Z,100.00
2022-10-06T06:06:40.420Z,100.00
2022-10-06T06:09:10.484Z,100.00
2022-10-06T06:11:40.884Z,100.00
2022-10-06T06:14:11.037Z,100.00
2022-10-06T06:16:42.780Z,100.00
2022-10-06T06:19:12.826Z,100.00
2022-10-06T06:21:44.061Z,100.00
2022-10-06T06:24:12.984Z,100.00
2022-10-06T06:26:42.642Z,100.00
2022-10-06T06:29:10.856Z,100.00
2022-10-06T06:31:41.836Z,100.00
2022-10-06T06:34:12.179Z,100.00
2022-10-06T06:36:47.143Z,100.00
2022-10-06T06:39:16.515Z,100.00
2022-10-06T06:41:46.677Z,100.00
2022-10-06T06:44:15.310Z,100.00
2022-10-06T06:46:49.352Z,100.00
2022-10-06T06:49:20.863Z,100.00
2022-10-06T06:51:51.238Z,100.00
2022-10-06T06:54:19.935Z,100.00
2022-10-06T06:56:49.143Z,100.00
2022-10-06T06:59:18.152Z,100.00
2022-10-06T07:01:49.030Z,100.00
2022-10-06T07:04:18.223Z,100.00
2022-10-06T07:06:57.229Z,100.00
2022-10-06T07:09:27.949Z,100.00
2022-10-06T07:11:56.650Z,100.00
2022-10-06T07:14:25.485Z,100.00
2022-10-06T07:17:11.097Z,100.00
2022-10-06T07:19:56.468Z,100.00
2022-10-06T07:22:46.244Z,100.00
2022-10-06T07:25:25.302Z,100.00
2022-10-06T07:27:54.681Z,100.00
2022-10-06T07:30:25.911Z,100.00
2022-10-06T07:32:55.172Z,100.00
2022-10-06T07:35:27.395Z,100.00
2022-10-06T07:37:57.782Z,100.00
2022-10-06T07:40:27.732Z,100.00
2022-10-06T07:42:56.432Z,100.00
2022-10-06T07:45:43.054Z,100.00
2022-10-06T07:48:14.741Z,100.00
2022-10-06T07:50:44.036Z,100.00
2022-10-06T07:53:12.163Z,100.00
2022-10-06T07:55:45.527Z,100.00
2022-10-06T07:58:17.465Z,100.00
2022-10-06T08:00:48.515Z,100.00
2022-10-06T08:03:18.563Z,100.00
2022-10-06T08:05:48.484Z,100.00
2022-10-06T08:08:17.931Z,100.00
2022-10-06T08:10:54.988Z,100.00
2022-10-06T08:13:25.087Z,100.00
2022-10-06T08:15:56.692Z,100.00
2022-10-06T08:21:19.873Z,100.00
2022-10-06T08:23:50.991Z,100.00
2022-10-06T08:26:23.399Z,100.00
2022-10-06T08:28:53.839Z,100.00
2022-10-06T08:31:23.665Z,100.00
2022-10-06T08:33:56.344Z,100.00
2022-10-06T08:36:31.067Z,100.00
2022-10-06T08:39:01.500Z,100.00
2022-10-06T08:41:48.637Z,100.00
2022-10-06T08:44:24.079Z,100.00
2022-10-06T08:47:05.044Z,100.00
2022-10-06T08:49:39.093Z,100.00
2022-10-06T08:52:20.305Z,100.00
2022-10-06T08:54:58.717Z,100.00
2022-10-06T08:57:34.862Z,100.00
2022-10-06T09:00:04.350Z,100.00
2022-10-06T09:02:39.280Z,100.00
2022-10-06T09:05:10.327Z,100.00
2022-10-06T09:07:49.799Z,100.00
2022-10-06T09:10:33.676Z,100.00
2022-10-06T09:13:08.376Z,100.00
2022-10-06T09:15:45.207Z,100.00
2022-10-06T09:18:22.415Z,100.00
2022-10-06T09:20:55.134Z,100.00
2022-10-06T09:23:44.573Z,100.00
2022-10-06T09:26:14.607Z,100.00
2022-10-06T09:28:48.329Z,100.00
2022-10-06T09:31:25.361Z,100.00
2022-10-06T09:33:56.049Z,100.00
2022-10-06T09:36:24.889Z,100.00
2022-10-06T09:38:55.541Z,100.00
2022-10-06T09:41:30.848Z,100.00
2022-10-06T09:44:04.593Z,100.00
2022-10-06T09:46:35.682Z,100.00
2022-10-06T09:49:20.301Z,100.00
2022-10-06T09:52:03.291Z,100.00
2022-10-06T09:54:34.728Z,100.00
2022-10-06T09:57:11.095Z,100.00
2022-10-06T09:59:46.228Z,100.00
2022-10-06T10:02:28.362Z,100.00
2022-10-06T10:05:01.005Z,100.00
2022-10-06T10:07:31.606Z,100.00
2022-10-06T10:10:21.466Z,100.00
2022-10-06T10:12:53.961Z,100.00
2022-10-06T10:15:31.790Z,99.41
2022-10-06T10:18:04.197Z,100.00
2022-10-06T10:20:35.772Z,100.00
2022-10-06T10:23:30.154Z,100.00
2022-10-06T10:26:19.182Z,100.00
2022-10-06T10:29:08.039Z,100.00
2022-10-06T10:31:56.975Z,100.00
2022-10-06T10:34:49.056Z,100.00
2022-10-06T10:37:22.163Z,100.00
2022-10-06T10:39:56.449Z,98.94
2022-10-06T10:42:31.358Z,100.00
2022-10-06T10:45:03.108Z,96.53
2022-10-06T10:47:45.127Z,93.16
2022-10-06T10:50:30.210Z,84.03
2022-10-06T10:53:03.715Z,86.51
2022-10-06T10:55:37.888Z,94.82
2022-10-06T10:58:16.257Z,95.05
2022-10-06T11:00:51.937Z,95.79
2022-10-06T11:03:23.301Z,89.85
2022-10-06T11:06:16.598Z,81.33
2022-10-06T11:08:54.844Z,75.81
2022-10-06T11:11:35.082Z,82.60
2022-10-06T11:14:09.017Z,89.92
2022-10-06T11:16:45.772Z,90.55
2022-10-06T11:19:41.474Z,85.81
2022-10-06T11:22:23.511Z,85.43
2022-10-06T11:25:02.624Z,79.43
2022-10-06T11:27:41.967Z,74.72
2022-10-06T11:30:18.493Z,73.29
2022-10-06T11:33:01.512Z,73.58
2022-10-06T11:35:36.913Z,78.06
2022-10-06T11:38:17.446Z,71.49
2022-10-06T11:40:56.465Z,76.93
2022-10-06T11:43:34.871Z,78.95
2022-10-06T11:46:11.430Z,74.84
2022-10-06T11:48:40.715Z,75.53
2022-10-06T11:51:33.249Z,72.93
2022-10-06T11:54:01.937Z,72.90
2022-10-06T11:56:39.444Z,77.49
2022-10-06T11:59:28.719Z,76.72
2022-10-06T12:02:01.080Z,74.48
2022-10-06T12:04:29.643Z,78.95
2022-10-06T12:07:08.678Z,72.99
2022-10-06T12:09:52.011Z,71.83
2022-10-06T12:12:47.757Z,72.32
2022-10-06T12:18:54.811Z,67.56
2022-10-06T12:21:40.329Z,69.33
2022-10-06T12:24:26.467Z,63.85
2022-10-06T12:27:08.382Z,65.92
2022-10-06T12:29:46.286Z,66.16
2022-10-06T12:32:53.971Z,62.14
2022-10-06T12:35:30.841Z,61.68
2022-10-06T12:38:04.899Z,61.46
2022-10-06T12:43:55.571Z,62.77
2022-10-06T12:46:46.754Z,59.47
2022-10-06T12:49:35.703Z,57.18
2022-10-06T12:52:20.909Z,63.96
2022-10-06T12:55:04.884Z,63.79
2022-10-06T12:57:46.819Z,62.78
2022-10-06T13:00:35.628Z,59.25
2022-10-06T13:03:06.553Z,55.95
2022-10-06T13:05:37.258Z,54.80
2022-10-06T13:08:07.112Z,56.22
2022-10-06T13:10:35.520Z,56.17
2022-10-06T13:13:04.060Z,58.29
2022-10-06T13:15:36.807Z,58.42
2022-10-06T13:18:14.601Z,62.34
2022-10-06T13:20:45.193Z,62.49
2022-10-06T13:23:25.973Z,65.76
2022-10-06T13:25:57.837Z,63.76
2022-10-06T13:28:30.041Z,63.24
2022-10-06T13:31:19.248Z,59.16
2022-10-06T13:33:50.535Z,61.14
2022-10-06T13:36:25.818Z,64.30
2022-10-06T13:38:55.048Z,61.68
2022-10-06T13:41:29.304Z,60.92
2022-10-06T13:44:02.066Z,57.42
2022-10-06T13:46:39.925Z,59.80
2022-10-06T13:49:21.313Z,55.12
2022-10-06T13:51:54.904Z,56.45
2022-10-06T13:54:29.736Z,52.91
2022-10-06T13:56:58.804Z,55.47
2022-10-06T13:59:44.505Z,54.31
2022-10-06T14:02:32.729Z,54.80
2022-10-06T14:05:29.461Z,52.32
2022-10-06T14:08:01.500Z,47.46
2022-10-06T14:10:33.877Z,47.88
2022-10-06T14:13:03.661Z,47.83
2022-10-06T14:15:40.641Z,51.62
2022-10-06T14:18:21.199Z,55.90
2022-10-06T14:20:50.383Z,57.77
2022-10-06T14:23:36.318Z,57.52
2022-10-06T14:26:04.702Z,54.13
2022-10-06T14:28:35.904Z,48.87
2022-10-06T14:31:04.411Z,49.43
2022-10-06T14:33:35.985Z,49.39
2022-10-06T14:36:04.128Z,46.60
2022-10-06T14:38:33.161Z,48.15
2022-10-06T14:41:03.655Z,52.81
2022-10-06T14:43:32.045Z,52.47
2022-10-06T14:46:04.083Z,50.52
2022-10-06T14:48:38.521Z,53.23
2022-10-06T14:51:10.617Z,53.21
2022-10-06T14:53:40.771Z,50.53
2022-10-06T14:56:14.155Z,47.77
2022-10-06T14:58:46.073Z,45.20
2022-10-06T15:01:17.722Z,48.69
2022-10-06T15:03:58.614Z,48.65
2022-10-06T15:06:44.726Z,47.03
2022-10-06T15:09:13.780Z,45.39
2022-10-06T15:11:42.756Z,44.22
2022-10-06T15:14:11.073Z,43.56
2022-10-06T15:16:42.531Z,45.00
2022-10-06T15:19:13.457Z,48.46
2022-10-06T15:21:45.501Z,47.47
2022-10-06T15:24:15.381Z,47.81
2022-10-06T15:27:01.600Z,46.67
2022-10-06T15:29:30.237Z,50.98
2022-10-06T15:32:00.428Z,48.25
2022-10-06T15:34:32.296Z,46.36
2022-10-06T15:37:01.941Z,49.78
2022-10-06T15:39:31.792Z,49.26
2022-10-06T15:42:00.736Z,44.24
2022-10-06T15:44:33.483Z,41.62
2022-10-06T15:47:02.021Z,44.02
2022-10-06T15:49:33.164Z,44.77
2022-10-06T15:52:04.647Z,47.17
2022-10-06T15:54:37.807Z,47.05
2022-10-06T15:57:10.312Z,44.36
2022-10-06T15:59:40.365Z,43.60
2022-10-06T16:02:14.961Z,40.92
2022-10-06T16:04:57.933Z,41.99
2022-10-06T16:07:26.424Z,42.45
2022-10-06T16:09:58.168Z,44.94
2022-10-06T16:12:28.699Z,42.26
2022-10-06T16:14:57.153Z,42.06
2022-10-06T16:17:25.877Z,43.74
2022-10-06T16:19:55.831Z,43.40
2022-10-06T16:22:24.489Z,42.80
2022-10-06T16:24:53.231Z,42.68
2022-10-06T16:27:24.669Z,45.10
2022-10-06T16:29:53.469Z,45.90
2022-10-06T16:32:21.727Z,49.19
2022-10-06T16:34:50.887Z,50.98
2022-10-06T16:37:20.653Z,55.41
2022-10-06T16:39:49.019Z,59.76
2022-10-06T16:42:18.192Z,67.00
2022-10-06T16:44:46.701Z,70.99
2022-10-06T16:47:15.773Z,71.30
2022-10-06T16:49:45.335Z,74.88
2022-10-06T16:52:13.694Z,81.41
2022-10-06T16:54:43.903Z,81.32
2022-10-06T16:57:12.258Z,78.51
2022-10-06T16:59:46.479Z,79.11
2022-10-06T17:02:15.447Z,81.60
2022-10-06T17:04:43.946Z,83.23
2022-10-06T17:07:12.496Z,83.84
2022-10-06T17:10:01.573Z,83.75
2022-10-06T17:12:32.971Z,83.92
2022-10-06T17:15:01.636Z,84.78
2022-10-06T17:17:30.139Z,90.38
2022-10-06T17:19:58.375Z,92.48
2022-10-06T17:22:26.878Z,93.67
2022-10-06T17:25:00.631Z,93.86
2022-10-06T17:27:32.768Z,93.48
2022-10-06T17:30:01.218Z,94.55
2022-10-06T17:32:29.822Z,96.06
2022-10-06T17:35:01.177Z,97.70
2022-10-06T17:37:30.185Z,100.00
2022-10-06T17:40:00.707Z,100.00
2022-10-06T17:42:29.155Z,100.00
2022-10-06T17:44:58.792Z,100.00
2022-10-06T17:47:28.385Z,100.00
2022-10-06T17:49:57.410Z,100.00
2022-10-06T17:52:26.683Z,100.00
2022-10-06T17:54:56.791Z,100.00
2022-10-06T17:57:30.825Z,100.00
2022-10-06T18:00:01.188Z,100.00
2022-10-06T18:02:29.981Z,100.00
2022-10-06T18:05:00.838Z,100.00
2022-10-06T18:07:29.898Z,100.00
2022-10-06T18:10:14.821Z,100.00
2022-10-06T18:12:48.917Z,100.00
2022-10-06T18:15:18.654Z,100.00
2022-10-06T18:17:48.102Z,100.00
2022-10-06T18:20:16.735Z,100.00
2022-10-06T18:22:45.283Z,100.00
2022-10-06T18:25:17.094Z,100.00
2022-10-06T18:27:47.984Z,100.00
2022-10-06T18:30:16.880Z,100.00
2022-10-06T18:38:23.365Z,100.00
2022-10-06T18:41:00.578Z,100.00
2022-10-06T18:43:30.898Z,100.00
2022-10-06T18:46:19.961Z,100.00
2022-10-06T18:48:58.706Z,100.00
2022-10-06T18:51:31.597Z,100.00
2022-10-06T18:54:02.845Z,100.00
2022-10-06T18:56:33.051Z,100.00
2022-10-06T18:59:09.031Z,100.00
2022-10-06T19:01:41.280Z,100.00
2022-10-06T19:04:14.949Z,100.00
2022-10-06T19:06:47.767Z,100.00
2022-10-06T19:09:18.301Z,100.00
2022-10-06T19:11:52.200Z,100.00
2022-10-06T19:14:24.653Z,100.00
2022-10-06T19:16:56.551Z,100.00
2022-10-06T19:19:26.679Z,100.00
2022-10-06T19:21:59.868Z,100.00
2022-10-06T19:24:30.263Z,100.00
2022-10-06T19:27:02.488Z,100.00
2022-10-06T19:29:37.186Z,100.00
2022-10-06T19:32:08.034Z,100.00
2022-10-06T19:34:38.488Z,100.00
2022-10-06T19:37:08.266Z,100.00
2022-10-06T19:39:42.973Z,100.00
2022-10-06T19:42:31.617Z,100.00
2022-10-06T19:45:01.701Z,100.00
2022-10-06T19:47:30.604Z,100.00
2022-10-06T19:50:03.737Z,100.00
2022-10-06T19:52:40.269Z,100.00
2022-10-06T19:55:08.786Z,100.00
2022-10-06T19:57:37.509Z,100.00
2022-10-06T20:00:11.301Z,100.00
2022-10-06T20:02:42.424Z,100.00
2022-10-06T20:05:12.459Z,100.00
2022-10-06T20:07:41.232Z,100.00
2022-10-06T20:10:11.899Z,100.00
2022-10-06T20:12:41.684Z,100.00
2022-10-06T20:15:13.024Z,100.00
2022-10-06T20:17:42.826Z,100.00
2022-10-06T20:20:11.781Z,100.00
2022-10-06T20:22:41.508Z,100.00
2022-10-06T20:25:11.490Z,100.00
2022-10-06T20:27:40.065Z,100.00
2022-10-06T20:30:12.394Z,100.00
2022-10-06T20:32:43.107Z,100.00
2022-10-06T20:35:11.951Z,100.00
2022-10-06T20:37:42.494Z,100.00
2022-10-06T20:40:28.677Z,100.00
2022-10-06T20:42:59.346Z,100.00
2022-10-06T20:45:30.289Z,100.00
2022-10-06T20:48:00.361Z,100.00
2022-10-06T20:50:31.312Z,100.00
2022-10-06T20:53:01.734Z,100.00
2022-10-06T20:55:30.340Z,100.00
2022-10-06T20:57:59.043Z,100.00
2022-10-06T21:00:29.756Z,100.00
2022-10-06T21:02:59.690Z,100.00
2022-10-06T21:05:33.635Z,100.00
2022-10-06T21:08:02.525Z,100.00
2022-10-06T21:10:31.438Z,100.00
2022-10-06T21:13:00.398Z,100.00
2022-10-06T21:15:30.647Z,100.00
2022-10-06T21:18:02.737Z,100.00
2022-10-06T21:20:31.509Z,100.00
2022-10-06T21:23:04.277Z,100.00
2022-10-06T21:25:33.108Z,100.00
2022-10-06T21:28:01.762Z,100.00
2022-10-06T21:30:33.985Z,100.00
2022-10-06T21:33:04.094Z,100.00
2022-10-06T21:35:33.163Z,100.00
2022-10-06T21:38:01.813Z,100.00
2022-10-06T21:40:30.861Z,100.00
2022-10-06T21:42:59.501Z,100.00
2022-10-06T21:45:33.196Z,100.00
2022-10-06T21:48:05.361Z,100.00
2022-10-06T21:50:34.119Z,100.00
2022-10-06T21:53:03.521Z,100.00
2022-10-06T21:55:32.206Z,100.00
2022-10-06T21:58:01.511Z,100.00
2022-10-06T22:00:30.524Z,100.00
2022-10-06T22:03:02.993Z,100.00
2022-10-06T22:05:35.188Z,100.00
2022-10-06T22:08:04.084Z,100.00
2022-10-06T22:10:33.617Z,100.00
2022-10-06T22:13:02.302Z,100.00
2022-10-06T22:15:32.071Z,100.00
2022-10-06T22:18:03.694Z,100.00
2022-10-06T22:20:35.870Z,100.00
2022-10-06T22:23:06.600Z,100.00
2022-10-06T22:25:37.667Z,100.00
2022-10-06T22:28:06.334Z,100.00
2022-10-06T22:30:35.093Z,100.00
2022-10-06T22:33:03.551Z,100.00
2022-10-06T22:35:35.449Z,100.00
2022-10-06T22:38:04.139Z,100.00
2022-10-06T22:40:33.433Z,100.00
2022-10-06T22:43:02.124Z,100.00
2022-10-06T22:45:30.767Z,100.00
2022-10-06T22:47:59.292Z,100.00
2022-10-06T22:50:27.946Z,100.00
2022-10-06T22:52:58.558Z,100.00
2022-10-06T22:55:27.253Z,100.00
2022-10-06T22:57:56.253Z,100.00
2022-10-06T23:00:28.159Z,100.00
2022-10-06T23:02:57.142Z,100.00
2022-10-06T23:05:26.248Z,100.00
2022-10-06T23:07:55.561Z,100.00
2022-10-06T23:10:25.994Z,100.00
2022-10-06T23:12:56.435Z,100.00
2022-10-06T23:15:25.982Z,100.00
2022-10-06T23:17:56.985Z,100.00
2022-10-06T23:20:28.872Z,100.00
2022-10-06T23:22:57.472Z,100.00
2022-10-06T23:25:27.847Z,100.00
2022-10-06T23:28:04.343Z,100.00
2022-10-06T23:30:36.477Z,100.00
2022-10-06T23:33:06.593Z,100.00
2022-10-06T23:35:35.449Z,100.00
2022-10-06T23:38:04.193Z,100.00
2022-10-06T23:40:34.569Z,100.00
2022-10-06T23:43:03.258Z,100.00
2022-10-06T23:45:34.016Z,100.00
2022-10-06T23:48:03.133Z,100.00
2022-10-06T23:50:32.416Z,100.00
2022-10-06T23:53:01.347Z,100.00
2022-10-06T23:55:30.199Z,100.00
2022-10-06T23:58:01.163Z,100.00
